Time;durP1;ratioP1;P1;durP2;ratioP2;P2;SDS_P1;SDS_P2;PMS_P1;PMS_P2;Temp;Humidity;BMP_temperature;BMP_pressure;BME280_temperature;BME280_humidity;BME280_pressure;Samples;Min_cycle;Max_cycle;Signal;HPM_P1;HPM_P2
2023/10/02 00:00:41;;;;;;;16.42;6.03;;;;;;;-145.69;61.10;52105.75;5031471;28;20295;-80
2023/10/02 00:03:09;;;;;;;14.13;5.18;;;;;;;-145.69;61.16;52083.97;5031363;28;20204;-80
2023/10/02 00:05:50;;;;;;;18.25;6.15;;;;;;;-145.69;60.76;52087.94;5031241;28;20204;-80
2023/10/02 00:08:31;;;;;;;15.77;5.68;;;;;;;-145.69;60.66;52074.06;5031525;28;20562;-80
2023/10/02 00:11:35;;;;;;;18.83;6.35;;;;;;;-145.69;61.19;52072.09;5031094;28;20651;-80
2023/10/02 00:14:20;;;;;;;15.60;5.40;;;;;;;-145.69;61.16;52107.72;5030701;28;20667;-80
2023/10/02 00:16:59;;;;;;;12.52;4.97;;;;;;;-145.69;61.36;52107.72;5030902;28;20663;-80
2023/10/02 00:19:30;;;;;;;10.57;5.13;;;;;;;-145.69;61.64;52111.69;5030292;28;20232;-80
2023/10/02 00:22:03;;;;;;;17.27;5.80;;;;;;;-145.69;61.41;52119.63;5031043;28;20554;-79
2023/10/02 00:24:32;;;;;;;15.55;6.15;;;;;;;-145.69;61.65;52105.75;5030882;28;20215;-80
2023/10/02 00:27:01;;;;;;;15.88;5.65;;;;;;;-145.69;61.67;52115.66;5011332;28;20208;-80
2023/10/02 00:29:28;;;;;;;18.33;5.72;;;;;;;-145.69;61.47;52113.66;5015803;27;20205;-79
2023/10/02 00:31:55;;;;;;;14.45;5.10;;;;;;;-145.69;61.15;52127.53;5131732;27;20197;-80
2023/10/02 00:34:31;;;;;;;17.23;5.47;;;;;;;-145.69;61.34;52070.09;5134804;27;20201;-80
2023/10/02 00:36:59;;;;;;;13.38;5.40;;;;;;;-145.69;61.27;52107.72;5134762;27;20208;-79
2023/10/02 00:39:30;;;;;;;15.75;5.68;;;;;;;-145.69;61.25;52095.84;5127223;27;20240;-80
2023/10/02 00:44:56;;;;;;;14.95;5.95;;;;;;;-145.69;61.84;52115.66;5030606;28;20207;-80
2023/10/02 00:47:45;;;;;;;16.10;5.30;;;;;;;-145.69;62.02;52121.59;5030186;28;20290;-80
2023/10/02 00:50:18;;;;;;;12.82;5.47;;;;;;;-145.69;61.70;52119.63;5030754;28;20200;-79
2023/10/02 00:52:51;;;;;;;17.27;5.80;;;;;;;-145.69;61.44;52089.91;5030511;28;20204;-79
2023/10/02 00:55:20;;;;;;;16.45;5.95;;;;;;;-145.69;60.94;52101.78;5030402;28;20659;-79
2023/10/02 00:57:50;;;;;;;13.55;5.50;;;;;;;-145.69;61.09;52097.84;5030357;28;20224;-80
2023/10/02 01:00:21;;;;;;;15.02;5.70;;;;;;;-145.69;61.13;52101.78;5030678;28;20211;-79
2023/10/02 01:02:49;;;;;;;18.00;5.85;;;;;;;-145.69;60.62;52103.78;5096071;27;20193;-79
2023/10/02 01:05:21;;;;;;;19.58;5.93;;;;;;;-145.69;60.44;52078.03;5134219;27;20196;-79
2023/10/02 01:07:53;;;;;;;14.43;6.07;;;;;;;-145.69;60.74;52111.69;5134239;27;20652;-79
2023/10/02 01:10:22;;;;;;;13.80;5.60;;;;;;;-145.69;60.50;52087.94;5078223;27;20192;-79
2023/10/02 01:12:50;;;;;;;16.58;6.43;;;;;;;-145.69;60.51;52139.41;5031300;28;20200;-79
2023/10/02 01:15:26;;;;;;;16.65;5.40;;;;;;;-145.69;60.25;52080.00;5040816;27;20196;-79
2023/10/02 01:17:53;;;;;;;15.52;5.70;;;;;;;-145.69;60.64;52095.84;5029959;28;20256;-79
2023/10/02 01:20:33;;;;;;;15.27;5.82;;;;;;;-145.69;61.21;52141.41;5030058;28;20667;-79
2023/10/02 01:23:16;;;;;;;16.55;5.93;;;;;;;-145.69;60.79;52089.91;5030340;28;20181;-79
2023/10/02 01:25:45;;;;;;;15.70;5.82;;;;;;;-145.69;61.06;52113.66;5029856;28;20231;-80
2023/10/02 01:28:13;;;;;;;16.85;5.30;;;;;;;-145.69;60.84;52115.66;5029759;28;20199;-79
2023/10/02 01:30:40;;;;;;;21.70;5.55;;;;;;;-145.69;60.38;52103.78;5029315;28;20197;-79
2023/10/02 01:33:14;;;;;;;22.80;6.90;;;;;;;-145.69;60.76;52119.63;5029882;28;20204;-79
2023/10/02 01:35:46;;;;;;;14.73;5.15;;;;;;;-145.69;60.72;52103.78;5029839;28;20563;-79
2023/10/02 01:38:13;;;;;;;17.23;6.15;;;;;;;-145.69;60.66;52080.00;5029732;28;20222;-79
2023/10/02 01:40:45;;;;;;;17.33;6.03;;;;;;;-145.69;60.79;52091.88;5029642;28;20206;-79
2023/10/02 01:43:14;;;;;;;23.02;6.35;;;;;;;-145.69;60.89;52101.78;5029815;28;20211;-79
2023/10/02 01:45:45;;;;;;;20.27;6.20;;;;;;;-145.69;60.93;52111.69;5029436;28;20210;-79
2023/10/02 01:48:14;;;;;;;19.23;6.03;;;;;;;-145.69;60.26;52113.66;5029818;28;20204;-80
2023/10/02 01:50:43;;;;;;;20.08;6.10;;;;;;;-145.69;60.19;52121.59;5029781;28;20658;-79
2023/10/02 01:53:28;;;;;;;20.45;6.15;;;;;;;-145.69;59.76;52087.94;5029341;28;20222;-79
2023/10/02 01:56:00;;;;;;;21.25;7.10;;;;;;;-145.69;60.88;52099.81;5029460;28;20196;-80
2023/10/02 01:58:27;;;;;;;17.77;6.28;;;;;;;-145.69;61.13;52111.69;5029490;28;20228;-80
2023/10/02 02:00:54;;;;;;;18.23;6.83;;;;;;;-145.69;60.92;52123.56;5029918;28;20242;-79
2023/10/02 02:03:22;;;;;;;19.48;6.57;;;;;;;-145.69;61.31;52139.41;5029764;28;20215;-79
2023/10/02 02:05:49;;;;;;;19.35;7.13;;;;;;;-145.69;61.04;52095.84;5029613;28;20200;-79
2023/10/02 02:08:25;;;;;;;20.25;7.03;;;;;;;-145.69;60.81;52113.66;5029443;28;20211;-79
2023/10/02 02:10:53;;;;;;;23.13;7.20;;;;;;;-145.69;60.56;52103.78;5026678;28;20204;-79
2023/10/02 02:13:22;;;;;;;18.73;6.88;;;;;;;-145.69;59.96;52111.69;5029447;28;20298;-78
2023/10/02 02:16:06;;;;;;;24.10;7.25;;;;;;;-145.69;60.05;52127.53;5029517;28;20227;-80
2023/10/02 02:18:33;;;;;;;22.08;7.20;;;;;;;-145.69;59.84;52115.66;5029383;28;20276;-79
2023/10/02 02:20:59;;;;;;;22.80;8.00;;;;;;;-145.69;59.61;52097.84;5029173;28;20204;-80
2023/10/02 02:23:27;;;;;;;21.55;7.47;;;;;;;-145.69;59.00;52117.63;5029213;28;20199;-80
2023/10/02 02:25:54;;;;;;;28.10;8.90;;;;;;;-145.69;58.83;52121.59;5029558;28;20305;-80
2023/10/02 02:28:22;;;;;;;24.30;7.95;;;;;;;-145.69;58.78;52091.88;5029155;28;20231;-80
2023/10/02 02:30:48;;;;;;;28.93;8.80;;;;;;;-145.69;58.97;52143.38;5029485;28;20204;-79
2023/10/02 02:33:15;;;;;;;33.47;9.30;;;;;;;-145.69;58.43;52095.84;5042367;28;20201;-79
2023/10/02 02:35:44;;;;;;;28.10;8.02;;;;;;;-145.69;58.17;52121.59;5133129;28;20221;-79
2023/10/02 02:38:14;;;;;;;25.95;8.40;;;;;;;-145.69;57.87;52131.50;5097536;28;20600;-79
2023/10/02 02:40:41;;;;;;;26.67;8.83;;;;;;;-145.69;57.52;52107.72;5029409;28;20245;-79
2023/10/02 02:43:13;;;;;;;27.77;9.30;;;;;;;-145.69;57.48;52101.78;5030755;28;20207;-79
2023/10/02 02:45:41;;;;;;;28.27;8.83;;;;;;;-145.69;56.75;52127.53;5032593;28;20200;-80
2023/10/02 02:48:10;;;;;;;30.37;8.77;;;;;;;-145.69;56.19;52139.41;5032295;28;20208;-79
2023/10/02 02:50:37;;;;;;;31.17;10.23;;;;;;;-145.69;55.95;52123.56;5032721;28;20601;-80
2023/10/02 02:53:23;;;;;;;31.93;9.63;;;;;;;-145.69;54.76;52125.56;5031690;28;20197;-79
2023/10/02 02:56:14;;;;;;;26.35;8.63;;;;;;;-145.69;53.88;52115.66;5032448;28;20207;-79
2023/10/02 02:58:43;;;;;;;33.37;9.33;;;;;;;-145.69;54.25;52133.47;5031825;28;20296;-79
2023/10/02 03:01:16;;;;;;;27.33;8.57;;;;;;;-145.69;53.49;52089.91;5059441;27;20312;-79
2023/10/02 03:03:42;;;;;;;32.63;10.07;;;;;;;-145.69;53.75;52103.78;5136826;27;20196;-79
2023/10/02 03:06:17;;;;;;;27.08;8.90;;;;;;;-145.69;52.39;52087.94;5136648;27;20465;-80
2023/10/02 03:08:44;;;;;;;30.27;9.43;;;;;;;-145.69;52.24;52097.84;5070658;27;20206;-79
2023/10/02 03:11:11;;;;;;;34.17;9.20;;;;;;;-145.69;51.94;52145.34;5046832;27;20200;-79
2023/10/02 03:13:39;;;;;;;30.50;8.23;;;;;;;-145.69;51.72;52115.66;5031725;28;20658;-80
2023/10/02 03:16:12;;;;;;;28.70;8.83;;;;;;;-145.69;50.55;52127.53;5032023;28;20196;-79
2023/10/02 03:18:43;;;;;;;30.33;9.40;;;;;;;-145.69;50.52;52091.88;5031964;28;20675;-79
2023/10/02 03:21:16;;;;;;;32.50;9.80;;;;;;;-145.69;49.81;52085.94;5031786;28;20562;-80
2023/10/02 03:23:43;;;;;;;30.27;9.10;;;;;;;-145.69;49.19;52109.72;5031840;28;20196;-80
2023/10/02 03:26:26;;;;;;;28.13;8.87;;;;;;;-145.69;49.25;52107.72;5031125;28;20547;-79
2023/10/02 03:29:00;;;;;;;28.90;9.47;;;;;;;-145.69;49.11;52072.09;5032034;28;20291;-80
2023/10/02 03:31:34;;;;;;;36.60;9.53;;;;;;;-145.69;49.67;52095.84;5031913;28;20196;-79
2023/10/02 03:34:24;;;;;;;31.27;8.97;;;;;;;-145.69;49.68;52091.88;5031728;28;20654;-80
2023/10/02 03:36:49;;;;;;;29.27;9.73;;;;;;;-145.69;50.18;52087.94;5031587;28;20570;-80
2023/10/02 03:39:23;;;;;;;30.67;9.43;;;;;;;-145.69;50.16;52101.78;5031166;28;20239;-80
2023/10/02 03:41:55;;;;;;;33.73;10.00;;;;;;;-145.69;50.22;52119.63;5031814;28;20206;-79
2023/10/02 03:44:22;;;;;;;31.83;9.83;;;;;;;-145.69;50.03;52109.72;5031560;28;20196;-80
2023/10/02 03:46:51;;;;;;;36.43;9.93;;;;;;;-145.69;49.83;52119.63;5031416;28;20200;-80
2023/10/02 03:49:19;;;;;;;34.47;10.37;;;;;;;-145.69;48.61;52123.56;5030187;28;20211;-80
2023/10/02 03:51:46;;;;;;;31.13;9.53;;;;;;;-145.69;48.93;52099.81;5030699;28;20197;-78
2023/10/02 03:54:20;;;;;;;31.03;8.90;;;;;;;-145.69;47.45;52101.78;5030767;28;20283;-79
2023/10/02 03:56:48;;;;;;;29.42;9.40;;;;;;;-145.69;46.99;52080.00;5031460;28;20235;-79
2023/10/02 03:59:17;;;;;;;31.02;8.85;;;;;;;-145.69;47.48;52089.91;5031547;28;20219;-79
2023/10/02 04:01:45;;;;;;;31.63;9.55;;;;;;;-145.69;47.10;52099.81;5031288;28;20200;-79
2023/10/02 04:04:19;;;;;;;33.03;9.30;;;;;;;-145.69;47.29;52091.88;5030771;28;20196;-79
2023/10/02 04:06:47;;;;;;;29.92;9.20;;;;;;;-145.69;46.76;52131.50;5031388;28;20210;-79
2023/10/02 04:09:21;;;;;;;32.35;9.40;;;;;;;-145.69;46.44;52119.63;5031847;28;20227;-79
2023/10/02 04:11:50;;;;;;;31.53;9.30;;;;;;;-145.69;45.91;52083.97;5031393;28;20192;-79
2023/10/02 04:14:31;;;;;;;30.85;9.07;;;;;;;-145.69;45.75;52123.56;5079575;27;20189;-80
2023/10/02 04:17:04;;;;;;;28.50;9.18;;;;;;;-145.69;46.04;52099.81;5126339;27;20296;-79
2023/10/02 04:19:35;;;;;;;34.50;9.55;;;;;;;-145.69;46.16;52099.81;5031186;28;20255;-79
2023/10/02 04:22:06;;;;;;;34.03;10.60;;;;;;;-145.69;45.81;52135.47;5030827;28;20196;-79
2023/10/02 04:24:50;;;;;;;30.63;9.50;;;;;;;-145.69;45.11;52095.84;5030704;28;20207;-80
2023/10/02 04:27:18;;;;;;;33.73;9.43;;;;;;;-145.69;44.81;52068.13;5030696;28;20200;-80
2023/10/02 04:30:09;;;;;;;37.22;10.10;;;;;;;-145.69;45.01;52111.69;5030947;28;20200;-80
2023/10/02 04:32:32;;;;;;;34.07;9.30;;;;;;;-145.69;43.86;52127.53;5030198;28;20204;-79
2023/10/02 04:34:58;;;;;;;33.93;9.40;;;;;;;-145.69;43.80;52099.81;5030552;28;20224;-79
2023/10/02 04:37:26;;;;;;;35.40;9.40;;;;;;;-145.69;43.38;52093.88;5030615;28;20211;-79
2023/10/02 04:39:53;;;;;;;37.30;9.70;;;;;;;-145.69;42.61;52101.78;5109616;27;20220;-80
2023/10/02 04:42:22;;;;;;;31.20;9.80;;;;;;;-145.69;41.70;52111.69;5134630;27;20249;-80
2023/10/02 04:44:56;;;;;;;33.90;9.73;;;;;;;-145.69;42.03;52095.84;5134528;27;20204;-80
2023/10/02 04:47:26;;;;;;;33.97;10.33;;;;;;;-145.69;41.82;52103.78;5134487;27;20537;-79
2023/10/02 04:52:58;;;;;;;30.83;8.95;;;;;;;-145.69;42.20;52056.25;4950149;29;20251;-80
2023/10/02 04:55:25;;;;;;;30.80;9.40;;;;;;;-145.69;42.08;52113.66;5014804;28;20211;-79
2023/10/02 04:57:54;;;;;;;29.93;9.23;;;;;;;-145.69;42.53;52095.84;5030611;28;20205;-79
2023/10/02 05:00:27;;;;;;;34.65;9.40;;;;;;;-145.69;42.00;52117.63;5029949;28;20231;-79
2023/10/02 05:03:09;;;;;;;31.05;9.60;;;;;;;-145.69;42.19;52107.72;5030076;28;20596;-79
2023/10/02 05:05:41;;;;;;;33.75;9.30;;;;;;;-145.69;42.08;52074.06;5117031;27;20555;-80
2023/10/02 05:08:18;;;;;;;29.13;8.43;;;;;;;-145.69;42.77;52093.88;5134315;27;20201;-80
2023/10/02 05:10:47;;;;;;;33.40;8.57;;;;;;;-145.69;44.83;52109.72;5133870;27;20685;-80
2023/10/02 05:13:14;;;;;;;26.00;7.63;;;;;;;-145.69;46.06;52123.56;5126643;27;20287;-80
2023/10/02 05:16:06;;;;;;;31.87;9.23;;;;;;;-145.69;47.32;52123.56;5031163;28;20554;-79
2023/10/02 05:18:26;;;;;;;29.80;8.00;;;;;;;-145.69;47.81;52111.69;5029720;28;20891;-79
2023/10/02 05:20:53;;;;;;;28.40;8.77;;;;;;;-145.69;48.95;52103.78;5030030;28;20228;-80
2023/10/02 05:23:21;;;;;;;27.13;8.67;;;;;;;-145.69;49.38;52125.56;5030102;28;20204;-79
2023/10/02 05:25:47;;;;;;;34.70;8.83;;;;;;;-145.69;49.71;52131.50;5030139;28;20200;-79
2023/10/02 05:28:14;;;;;;;25.97;7.57;;;;;;;-145.69;49.54;52115.66;5030058;28;20204;-80
2023/10/02 05:30:43;;;;;;;24.13;7.23;;;;;;;-145.69;49.48;52091.88;5029694;28;20198;-80
2023/10/02 05:33:15;;;;;;;30.20;8.90;;;;;;;-145.69;49.80;52125.56;5029782;28;20771;-79
2023/10/02 05:35:45;;;;;;;26.37;8.00;;;;;;;-145.69;50.51;52091.88;5029921;28;20235;-79
2023/10/02 05:38:16;;;;;;;27.07;8.43;;;;;;;-145.69;50.04;52099.81;5029829;28;20207;-80
2023/10/02 05:40:47;;;;;;;33.00;8.17;;;;;;;-145.69;50.01;52119.63;5030383;28;20571;-79
2023/10/02 05:43:18;;;;;;;36.83;9.27;;;;;;;-145.69;49.88;52111.69;5029814;28;20200;-79
2023/10/02 05:45:53;;;;;;;31.47;9.40;;;;;;;-145.69;49.27;52119.63;5030147;28;20200;-79
2023/10/02 05:48:31;;;;;;;34.03;9.50;;;;;;;-145.69;48.73;52109.72;5029369;28;20199;-79
2023/10/02 05:50:59;;;;;;;30.53;9.50;;;;;;;-145.69;48.84;52099.81;5029515;28;20196;-79
2023/10/02 05:53:26;;;;;;;34.10;10.10;;;;;;;-145.69;47.54;52129.50;5029611;28;20201;-79
2023/10/02 05:56:12;;;;;;;38.47;10.20;;;;;;;-145.69;46.99;52080.00;5029748;28;20206;-79
2023/10/02 05:58:41;;;;;;;39.83;10.90;;;;;;;-145.69;46.92;52072.09;5029473;28;20204;-79
2023/10/02 06:01:18;;;;;;;34.37;10.30;;;;;;;-145.69;47.25;52111.69;5029496;28;20323;-79
2023/10/02 06:03:51;;;;;;;36.70;10.90;;;;;;;-145.69;47.39;52109.72;5029445;28;20558;-79
2023/10/02 06:06:20;;;;;;;38.03;11.83;;;;;;;-145.69;49.10;52127.53;5029256;28;20288;-79
2023/10/02 06:08:49;;;;;;;38.40;11.80;;;;;;;-145.69;49.81;52087.94;5029650;28;20200;-79
2023/10/02 06:11:26;;;;;;;37.80;11.33;;;;;;;-145.69;49.90;52109.72;5029512;28;20657;-80
2023/10/02 06:13:55;;;;;;;31.73;10.15;;;;;;;-145.69;50.21;52105.75;5029130;28;20196;-79
2023/10/02 06:16:24;;;;;;;37.13;10.73;;;;;;;-145.69;50.17;52109.72;5028835;28;20199;-79
2023/10/02 06:19:00;;;;;;;42.67;13.35;;;;;;;-145.69;51.23;52111.69;5031297;28;20799;-80
2023/10/02 06:21:28;;;;;;;40.17;11.90;;;;;;;-145.69;50.82;52078.03;5032634;28;20200;-79
2023/10/02 06:23:56;;;;;;;36.22;12.00;;;;;;;-145.69;50.38;52109.72;5032866;28;20207;-79
2023/10/02 06:26:29;;;;;;;37.60;11.75;;;;;;;-145.69;50.84;52103.78;5032658;28;20531;-80
2023/10/02 06:31:41;;;;;;;37.05;11.95;;;;;;;-145.69;51.91;52127.53;5032484;28;20207;-80
2023/10/02 06:34:08;;;;;;;37.00;10.27;;;;;;;-145.69;51.71;52103.78;5032803;28;20310;-79
2023/10/02 06:36:45;;;;;;;37.63;11.25;;;;;;;-145.69;52.51;52105.75;5032432;28;20196;-79
2023/10/02 06:39:12;;;;;;;34.05;11.18;;;;;;;-145.69;52.11;52076.03;5032621;28;20227;-79
2023/10/02 06:41:40;;;;;;;37.88;11.73;;;;;;;-145.69;52.36;52119.63;5032027;28;20303;-79
2023/10/02 06:44:14;;;;;;;37.90;10.55;;;;;;;-145.69;52.89;52099.81;5032540;28;20207;-80
2023/10/02 06:46:52;;;;;;;38.65;10.88;;;;;;;-145.69;53.58;52109.72;5032542;28;20203;-79
2023/10/02 06:49:20;;;;;;;38.10;11.18;;;;;;;-145.69;53.95;52095.84;5082449;27;20185;-80
2023/10/02 06:51:49;;;;;;;37.47;12.35;;;;;;;-145.69;54.08;52097.84;5032371;28;20299;-79
2023/10/02 06:54:19;;;;;;;42.13;12.60;;;;;;;-145.69;54.41;52087.94;5032557;28;20272;-79
2023/10/02 06:56:47;;;;;;;33.30;10.75;;;;;;;-145.69;53.90;52087.94;5032363;28;20197;-79
2023/10/02 06:59:16;;;;;;;36.22;11.65;;;;;;;-145.69;54.81;52121.59;5032033;28;20554;-79
2023/10/02 07:04:32;;;;;;;34.10;10.85;;;;;;;-145.69;53.96;52076.03;5032052;28;20203;-80
2023/10/02 07:07:07;;;;;;;30.35;10.30;;;;;;;-145.69;53.90;52097.84;5084850;27;20630;-79
2023/10/02 07:09:35;;;;;;;34.78;10.48;;;;;;;-145.69;53.77;52095.84;5136488;27;20214;-79
2023/10/02 07:12:15;;;;;;;34.83;11.38;;;;;;;-145.69;54.35;52129.50;5031248;28;20192;-80
2023/10/02 07:14:45;;;;;;;51.13;16.08;;;;;;;-145.69;56.20;52131.50;5029693;28;20924;-78
2023/10/02 07:17:23;;;;;;;39.55;13.02;;;;;;;-145.69;56.25;52080.00;5031813;28;20293;-79
2023/10/02 07:19:50;;;;;;;44.90;13.25;;;;;;;-145.69;55.19;52093.88;5046720;27;20220;-79
2023/10/02 07:22:22;;;;;;;41.13;12.73;;;;;;;-145.69;54.81;52097.84;5031850;28;20294;-79
2023/10/02 07:24:48;;;;;;;41.05;12.68;;;;;;;-145.69;54.44;52089.91;5031718;28;20188;-79
2023/10/02 07:27:25;;;;;;;45.05;12.82;;;;;;;-145.69;54.07;52089.91;5032054;28;20204;-79
2023/10/02 07:30:00;;;;;;;42.15;12.60;;;;;;;-145.69;53.50;52082.00;5031242;28;20561;-79
2023/10/02 07:32:28;;;;;;;45.97;13.40;;;;;;;-145.69;53.47;52078.03;5031222;28;20207;-79
2023/10/02 07:35:09;;;;;;;42.85;12.25;;;;;;;-145.69;53.15;52072.09;5031716;28;20260;-79
2023/10/02 07:37:38;;;;;;;48.65;14.38;;;;;;;-145.69;52.11;52042.38;5027732;28;20196;-79
2023/10/02 07:40:07;;;;;;;47.17;13.63;;;;;;;-145.69;51.20;52052.28;5031712;28;20235;-79
2023/10/02 07:42:35;;;;;;;43.25;13.45;;;;;;;-145.69;50.58;52048.31;5031703;28;20211;-79
2023/10/02 07:45:12;;;;;;;46.53;14.00;;;;;;;-145.69;50.11;52074.06;5031576;28;20200;-79
2023/10/02 07:47:55;;;;;;;44.10;13.02;;;;;;;-145.69;48.75;52082.00;5031625;28;20227;-79
2023/10/02 07:50:33;;;;;;;42.10;12.77;;;;;;;-145.69;48.07;52072.09;5031009;28;20200;-79
2023/10/02 07:53:01;;;;;;;44.53;13.93;;;;;;;-145.69;46.84;52040.41;5031750;28;20195;-78
2023/10/02 07:55:27;;;;;;;42.63;12.88;;;;;;;-145.69;45.77;52066.16;5031660;28;20204;-79
2023/10/02 07:58:00;;;;;;;47.10;14.15;;;;;;;-145.69;45.80;52038.44;5031852;28;20204;-78
2023/10/02 08:00:40;;;;;;;43.95;13.15;;;;;;;-145.69;45.98;52056.25;5031490;28;20323;-79
2023/10/02 08:03:31;;;;;;;40.60;12.70;;;;;;;-145.69;46.13;52016.66;5031213;28;20204;-80
2023/10/02 08:05:58;;;;;;;42.38;14.02;;;;;;;-145.69;46.11;52022.59;5031102;28;20279;-79
2023/10/02 08:08:31;;;;;;;40.45;13.20;;;;;;;-145.69;46.99;52036.44;5031129;28;20204;-80
2023/10/02 08:10:58;;;;;;;41.97;13.40;;;;;;;-145.69;47.46;52038.44;5031232;28;20197;-79
2023/10/02 08:13:33;;;;;;;51.70;14.43;;;;;;;-145.69;46.93;52048.31;5031073;28;20299;-80
2023/10/02 08:16:12;;;;;;;46.83;14.70;;;;;;;-145.69;46.16;52002.78;5031069;28;20248;-79
2023/10/02 08:21:23;;;;;;;44.63;13.40;;;;;;;-145.69;45.52;52032.47;5031400;28;20351;-80
2023/10/02 08:23:52;;;;;;;47.65;14.80;;;;;;;-145.69;44.59;52016.66;5031129;28;20950;-79
2023/10/02 08:26:21;;;;;;;46.47;15.02;;;;;;;-145.69;44.55;51996.84;5031236;28;20328;-79
2023/10/02 08:28:52;;;;;;;52.13;15.32;;;;;;;-145.69;44.30;52000.81;5031121;28;20211;-80
2023/10/02 08:31:19;;;;;;;44.33;13.63;;;;;;;-145.69;44.12;52008.72;5030770;28;20189;-80
2023/10/02 08:33:45;;;;;;;47.60;14.05;;;;;;;-145.69;44.30;52002.78;5029254;28;20547;-80
2023/10/02 08:36:13;;;;;;;48.72;14.13;;;;;;;-145.69;44.04;51977.03;5030583;28;20232;-79
2023/10/02 08:38:41;;;;;;;44.45;14.45;;;;;;;-145.69;43.84;51982.97;5030609;28;20618;-80
2023/10/02 08:41:08;;;;;;;51.25;15.32;;;;;;;-145.69;44.55;52030.50;5029954;28;20259;-80
2023/10/02 08:43:41;;;;;;;49.42;16.10;;;;;;;-145.69;46.13;52004.75;5029724;28;20904;-80
2023/10/02 08:46:19;;;;;;;47.63;15.27;;;;;;;-145.69;45.92;51977.03;5029390;28;20692;-80
2023/10/02 08:48:46;;;;;;;48.17;15.90;;;;;;;-145.69;46.48;51992.88;5030576;28;20257;-80
2023/10/02 08:51:26;;;;;;;48.50;15.15;;;;;;;-145.69;46.37;52024.56;5105687;27;20200;-81
2023/10/02 08:53:57;;;;;;;53.22;17.02;;;;;;;-145.69;47.36;51988.91;5134564;27;20273;-80
2023/10/02 08:56:25;;;;;;;56.33;18.25;;;;;;;-145.69;48.28;51981.00;5134633;27;20236;-80
2023/10/02 08:59:15;;;;;;;52.72;17.15;;;;;;;-145.69;49.33;51986.94;5134374;27;20228;-81
2023/10/02 09:01:40;;;;;;;56.38;19.13;;;;;;;-145.69;49.58;51996.84;5034032;27;20263;-80
2023/10/02 09:04:23;;;;;;;64.80;20.40;;;;;;;-145.69;49.77;51982.97;5029419;28;20544;-78
2023/10/02 09:06:49;;;;;;;58.53;19.23;;;;;;;-145.69;49.84;52000.81;5031238;28;20287;-80
2023/10/02 09:09:26;;;;;;;65.03;20.10;;;;;;;-145.69;49.33;51984.97;5031270;28;20204;-80
2023/10/02 09:11:57;;;;;;;61.72;19.55;;;;;;;-145.69;50.53;51967.13;5042604;27;20642;-81
2023/10/02 09:14:39;;;;;;;57.53;18.55;;;;;;;-145.69;49.98;51965.16;5055603;27;20196;-81
2023/10/02 09:17:12;;;;;;;52.85;18.30;;;;;;;-145.69;49.98;51982.97;5050756;28;20558;-81
2023/10/02 09:19:39;;;;;;;67.13;18.75;;;;;;;-145.69;50.87;52014.66;5055943;28;20225;-81
2023/10/02 09:22:14;;;;;;;55.42;19.23;;;;;;;-145.69;50.16;51977.03;5057064;28;20230;-82
2023/10/02 09:24:42;;;;;;;58.47;19.33;;;;;;;-145.69;51.11;51959.22;5057484;28;20203;-80
2023/10/02 09:27:23;;;;;;;54.03;17.75;;;;;;;-145.69;50.10;51975.06;5045200;28;20224;-81
2023/10/02 09:30:15;;;;;;;59.40;19.13;;;;;;;-145.69;50.47;51969.13;5045759;28;20220;-82
2023/10/02 09:32:47;;;;;;;55.17;16.10;;;;;;;-145.69;50.43;51957.25;5041559;28;20188;-81
2023/10/02 09:35:23;;;;;;;50.47;16.75;;;;;;;-145.69;49.50;51965.16;5046278;28;20239;-82
2023/10/02 09:37:55;;;;;;;45.97;16.58;;;;;;;-145.69;50.32;51969.13;5062914;28;20196;-82
2023/10/02 09:40:28;;;;;;;43.47;15.27;;;;;;;-145.69;48.77;51979.03;5055846;28;20251;-81
2023/10/02 09:43:05;;;;;;;46.30;15.88;;;;;;;-145.69;48.55;51959.22;5043719;28;20204;-82
2023/10/02 09:45:34;;;;;;;48.15;15.77;;;;;;;-145.69;48.47;51945.34;5043173;28;20268;-81
2023/10/02 09:48:06;;;;;;;42.83;14.35;;;;;;;-145.69;48.39;51977.03;5041085;28;20235;-81
2023/10/02 09:50:39;;;;;;;44.13;15.15;;;;;;;-145.69;46.69;51953.28;5044328;28;20191;-81
2023/10/02 09:53:09;;;;;;;43.35;15.07;;;;;;;-145.69;47.10;51965.16;5057862;28;20663;-82
2023/10/02 09:56:03;;;;;;;48.03;16.25;;;;;;;-145.69;47.56;51941.41;5046391;28;20259;-82
2023/10/02 09:58:35;;;;;;;45.83;15.13;;;;;;;-145.69;47.65;51957.25;5062598;28;20200;-82
2023/10/02 10:01:36;;;;;;;45.65;15.85;;;;;;;-145.69;46.62;51961.19;5058204;28;20227;-82
2023/10/02 10:07:06;;;;;;;48.85;15.98;;;;;;;-145.69;45.57;51955.25;5034151;28;20716;-82
2023/10/02 10:09:50;;;;;;;48.97;15.68;;;;;;;-145.69;47.07;51973.06;5038494;28;20236;-81
2023/10/02 10:12:48;;;;;;;46.13;17.10;;;;;;;-145.69;48.06;51967.13;5044328;28;20433;-81
2023/10/02 10:15:23;;;;;;;45.17;14.85;;;;;;;-145.69;47.04;51949.31;5047248;28;20208;-81
2023/10/02 10:17:56;;;;;;;46.35;14.98;;;;;;;-145.69;46.84;51973.06;5045488;28;20221;-81
2023/10/02 10:20:26;;;;;;;43.55;15.52;;;;;;;-145.69;47.45;51917.63;5045569;28;20704;-81
2023/10/02 10:22:56;;;;;;;49.15;16.63;;;;;;;-145.69;46.68;51937.44;5042105;28;20208;-81
2023/10/02 10:25:49;;;;;;;44.15;15.60;;;;;;;-145.69;46.23;51943.38;5045290;28;20436;-81
2023/10/02 10:28:28;;;;;;;46.65;15.75;;;;;;;-145.69;47.50;51909.72;5045541;28;20207;-81
2023/10/02 10:31:01;;;;;;;44.45;15.77;;;;;;;-145.69;46.15;51933.47;5045285;28;20184;-81
2023/10/02 10:33:35;;;;;;;45.15;16.40;;;;;;;-145.69;44.73;51933.47;5026774;28;20207;-81
2023/10/02 10:36:13;;;;;;;43.78;16.63;;;;;;;-145.69;45.34;51927.53;5032531;28;20274;-82
2023/10/02 10:38:41;;;;;;;51.15;18.10;;;;;;;-145.69;44.06;51943.38;5035653;28;20268;-81
2023/10/02 10:41:09;;;;;;;48.70;17.17;;;;;;;-145.69;43.76;51935.47;5050661;28;20220;-82
2023/10/02 10:46:31;;;;;;;44.33;15.38;;;;;;;-145.69;44.57;51923.56;5023659;28;20284;-81
2023/10/02 10:49:07;;;;;;;49.03;16.30;;;;;;;-145.69;44.45;51913.69;5049417;27;20197;-82
2023/10/02 10:51:36;;;;;;;49.10;17.13;;;;;;;-145.69;44.83;51895.84;5039522;28;20196;-82
2023/10/02 10:54:12;;;;;;;46.97;17.58;;;;;;;-145.69;42.89;51887.94;5035565;28;20206;-81
2023/10/02 10:56:44;;;;;;;49.45;19.38;;;;;;;-145.69;43.89;51905.75;5033666;28;20524;-81
2023/10/02 10:59:15;;;;;;;52.45;18.48;;;;;;;-145.69;43.24;51899.81;5039728;28;20204;-81
2023/10/02 11:01:49;;;;;;;46.90;16.98;;;;;;;-145.69;42.56;51917.63;5048470;28;20226;-81
2023/10/02 11:04:26;;;;;;;56.90;19.23;;;;;;;-145.69;41.96;51917.63;5045466;28;20582;-81
2023/10/02 11:06:54;;;;;;;57.08;19.65;;;;;;;-145.69;41.67;51885.94;5041176;28;20651;-82
2023/10/02 11:09:24;;;;;;;51.35;18.52;;;;;;;-145.69;41.76;51897.84;5062426;27;20214;-81
2023/10/02 11:11:51;;;;;;;56.03;19.20;;;;;;;-145.69;42.01;51921.59;5041963;28;20208;-82
2023/10/02 11:14:21;;;;;;;53.60;19.50;;;;;;;-145.69;41.54;51923.56;5060112;27;20211;-81
2023/10/02 11:16:52;;;;;;;56.30;20.08;;;;;;;-145.69;42.11;51901.78;5042390;28;20651;-82
2023/10/02 11:19:35;;;;;;;57.28;19.60;;;;;;;-145.69;42.05;51885.94;5043889;28;20243;-82
2023/10/02 11:22:15;;;;;;;56.95;19.83;;;;;;;-145.69;42.55;51885.94;5044006;28;20231;-82
2023/10/02 11:24:46;;;;;;;55.17;19.58;;;;;;;-145.69;43.66;51889.91;5043078;28;20225;-82
2023/10/02 11:27:15;;;;;;;53.20;19.77;;;;;;;-145.69;43.29;51893.88;5041644;28;20211;-82
2023/10/02 11:29:43;;;;;;;51.25;18.63;;;;;;;-145.69;43.20;51887.94;5042680;28;20200;-82
2023/10/02 11:32:23;;;;;;;51.25;19.50;;;;;;;-145.69;42.80;51852.28;5040916;28;20208;-82
2023/10/02 11:34:51;;;;;;;55.50;19.00;;;;;;;-145.69;42.18;51860.22;5038726;28;20242;-82
2023/10/02 11:37:23;;;;;;;54.28;19.58;;;;;;;-145.69;41.73;51874.06;5038400;28;20200;-83
2023/10/02 11:39:51;;;;;;;54.65;20.02;;;;;;;-145.69;42.30;51850.31;5040769;28;20208;-83
2023/10/02 11:42:21;;;;;;;62.15;22.25;;;;;;;-145.69;40.85;51854.28;5038809;28;20273;-82
2023/10/02 11:44:48;;;;;;;62.60;20.23;;;;;;;-145.69;41.49;51870.13;5040398;28;20192;-83
2023/10/02 11:47:14;;;;;;;59.85;21.70;;;;;;;-145.69;40.91;51850.31;5039900;28;20212;-83